createdAt,value
2022-12-27T00:02:03.489Z,101635.78
2022-12-27T00:07:07.968Z,101633.16
2022-12-27T00:12:12.280Z,101653.63
2022-12-27T00:17:18.470Z,101644.34
2022-12-27T00:22:20.181Z,101649.31
2022-12-27T00:27:24.693Z,101662.09
2022-12-27T00:32:28.588Z,101647.59
2022-12-27T00:37:33.757Z,101655.00
2022-12-27T00:42:35.470Z,101658.25
2022-12-27T00:47:40.265Z,101664.91
2022-12-27T00:52:44.043Z,101664.09
2022-12-27T00:57:45.734Z,101672.66
2022-12-27T01:02:47.455Z,101670.63
2022-12-27T01:07:52.917Z,101671.66
2022-12-27T01:12:54.639Z,101690.84
2022-12-27T01:17:56.386Z,101700.06
2022-12-27T01:22:58.173Z,101693.44
2022-12-27T01:27:59.826Z,101688.66
2022-12-27T01:33:04.498Z,101704.75
2022-12-27T01:38:08.380Z,101686.63
2022-12-27T01:43:17.586Z,101685.22
2022-12-27T01:48:22.928Z,101693.78
2022-12-27T01:53:28.841Z,101720.94
2022-12-27T01:58:41.929Z,101725.75
2022-12-27T02:03:52.084Z,101735.06
2022-12-27T02:09:02.158Z,101728.81
2022-12-27T02:14:07.086Z,101730.75
2022-12-27T02:19:26.144Z,101722.38
2022-12-27T02:24:54.910Z,101739.94
2022-12-27T02:29:59.958Z,101735.38
2022-12-27T02:35:08.950Z,101723.34
2022-12-27T02:40:30.324Z,101731.56
2022-12-27T02:45:54.741Z,101752.03
2022-12-27T02:52:06.451Z,101715.38
2022-12-27T02:57:30.274Z,101721.41
2022-12-27T03:02:59.830Z,101733.09
2022-12-27T03:08:18.669Z,101723.03
2022-12-27T03:13:50.526Z,101721.41
2022-12-27T03:19:41.048Z,101736.31
2022-12-27T03:25:01.322Z,101721.84
2022-12-27T03:30:27.296Z,101736.13
2022-12-27T03:35:30.139Z,101722.91
2022-12-27T03:41:05.407Z,101728.81
2022-12-27T03:46:35.439Z,101730.09
2022-12-27T03:51:51.458Z,101720.78
2022-12-27T03:56:58.931Z,101740.44
2022-12-27T04:02:03.672Z,101744.06
2022-12-27T04:07:12.869Z,101743.63
2022-12-27T04:12:33.080Z,101753.97
2022-12-27T04:17:54.179Z,101767.69
2022-12-27T04:23:15.978Z,101791.97
2022-12-27T04:28:38.696Z,101815.13
2022-12-27T04:33:59.646Z,101796.00
2022-12-27T04:39:01.387Z,101796.88
2022-12-27T04:44:25.269Z,101804.47
2022-12-27T04:49:49.304Z,101803.50
2022-12-27T04:54:56.745Z,101803.28
2022-12-27T05:00:17.046Z,101793.59
2022-12-27T05:05:22.036Z,101795.81
2022-12-27T05:10:42.349Z,101801.09
2022-12-27T05:15:44.213Z,101805.88
2022-12-27T05:20:48.122Z,101809.34
2022-12-27T05:25:52.331Z,101814.50
2022-12-27T05:31:01.635Z,101815.34
2022-12-27T05:36:09.240Z,101837.00
2022-12-27T05:41:18.082Z,101826.44
2022-12-27T05:46:22.637Z,101838.28
2022-12-27T05:51:24.621Z,101843.75
2022-12-27T05:56:28.706Z,101852.19
2022-12-27T06:01:30.449Z,101870.03
2022-12-27T06:06:34.046Z,101883.47
2022-12-27T06:11:36.577Z,101906.09
2022-12-27T06:16:39.421Z,101896.16
2022-12-27T06:21:43.407Z,101901.66
2022-12-27T06:26:45.440Z,101906.19
2022-12-27T06:31:47.333Z,101908.63
2022-12-27T06:36:51.335Z,101910.09
2022-12-27T06:41:55.249Z,101916.66
2022-12-27T06:46:56.955Z,101929.50
2022-12-27T06:52:01.662Z,101934.03
2022-12-27T06:57:03.768Z,101938.31
2022-12-27T07:02:05.632Z,101970.66
2022-12-27T07:07:15.426Z,101995.75
2022-12-27T07:12:17.934Z,101977.75
2022-12-27T07:17:22.315Z,101983.00
2022-12-27T07:22:24.038Z,102008.81
2022-12-27T07:27:31.522Z,101997.69
2022-12-27T07:32:33.225Z,102003.78
2022-12-27T07:37:37.270Z,102013.50
2022-12-27T07:42:44.730Z,102044.41
2022-12-27T07:47:48.661Z,102047.38
2022-12-27T07:52:53.203Z,102055.97
2022-12-27T07:58:01.883Z,102077.53
2022-12-27T08:03:04.701Z,102096.63
2022-12-27T08:08:06.728Z,102088.63
2022-12-27T08:13:08.530Z,102090.00
2022-12-27T08:18:12.363Z,102101.34
2022-12-27T08:23:17.066Z,102091.25
2022-12-27T08:28:19.786Z,102095.97
2022-12-27T08:33:23.980Z,102098.53
2022-12-27T08:38:25.857Z,102096.44
2022-12-27T08:43:29.887Z,102089.66
2022-12-27T08:48:36.912Z,102094.25
2022-12-27T08:53:38.850Z,102099.78
2022-12-27T08:58:40.677Z,102103.88
2022-12-27T09:03:45.161Z,102113.31
2022-12-27T09:08:50.549Z,102116.53
2022-12-27T09:13:54.828Z,102123.78
2022-12-27T09:18:58.322Z,102128.47
2022-12-27T09:24:00.323Z,102131.41
2022-12-27T09:29:02.157Z,102129.81
2022-12-27T09:34:05.001Z,102131.47
2022-12-27T09:39:06.798Z,102138.78
2022-12-27T09:44:17.443Z,102139.56
2022-12-27T09:49:39.194Z,102141.59
2022-12-27T09:54:44.862Z,102165.09
2022-12-27T09:59:49.306Z,102155.78
2022-12-27T10:10:36.242Z,102151.81
2022-12-27T10:15:37.898Z,102157.44
2022-12-27T10:20:47.996Z,102172.59
2022-12-27T10:25:56.935Z,102172.78
2022-12-27T10:31:02.574Z,102170.47
2022-12-27T10:36:13.462Z,102197.03
2022-12-27T10:41:39.822Z,102199.59
2022-12-27T10:46:44.819Z,102191.00
2022-12-27T10:51:46.932Z,102188.78
2022-12-27T10:56:49.833Z,102184.72
2022-12-27T11:02:02.925Z,102175.81
2022-12-27T11:07:04.720Z,102193.66
2022-12-27T11:12:29.216Z,102211.00
2022-12-27T11:17:48.750Z,102207.06
2022-12-27T11:22:58.344Z,102221.78
2022-12-27T11:28:16.726Z,102235.72
2022-12-27T11:33:30.110Z,102234.53
2022-12-27T11:38:34.165Z,102241.97
2022-12-27T11:43:41.403Z,102233.69
2022-12-27T11:48:54.583Z,102234.31
2022-12-27T11:54:15.182Z,102224.03
2022-12-27T11:59:36.346Z,102213.19
2022-12-27T12:05:06.563Z,102217.63
2022-12-27T12:10:39.362Z,102207.69
2022-12-27T12:15:59.676Z,102206.84
2022-12-27T12:21:46.125Z,102213.16
2022-12-27T12:26:56.960Z,102215.06
2022-12-27T12:32:25.789Z,102207.03
2022-12-27T12:37:52.121Z,102212.09
2022-12-27T12:43:15.245Z,102216.53
2022-12-27T12:48:37.825Z,102210.72
2022-12-27T12:53:55.979Z,102203.47
2022-12-27T12:59:24.328Z,102193.19
2022-12-27T13:04:34.992Z,102186.81
2022-12-27T13:09:58.352Z,102192.44
2022-12-27T13:15:28.142Z,102175.53
2022-12-27T13:21:06.724Z,102175.50
2022-12-27T13:26:31.228Z,102165.72
2022-12-27T13:31:48.326Z,102168.25
2022-12-27T13:37:22.026Z,102170.44
2022-12-27T13:42:35.573Z,102166.34
2022-12-27T13:48:16.296Z,102170.81
2022-12-27T13:53:17.939Z,102162.22
2022-12-27T13:58:28.020Z,102147.47
2022-12-27T14:03:44.858Z,102150.13
2022-12-27T14:09:05.005Z,102150.25
2022-12-27T14:14:08.521Z,102143.97
2022-12-27T14:19:13.959Z,102147.84
2022-12-27T14:24:40.828Z,102140.91
2022-12-27T14:29:59.783Z,102144.47
2022-12-27T14:35:49.583Z,102137.81
2022-12-27T14:41:12.907Z,102143.94
2022-12-27T14:46:33.603Z,102145.56
2022-12-27T14:52:01.791Z,102136.03
2022-12-27T14:57:16.679Z,102136.81
2022-12-27T15:02:52.998Z,102126.56
2022-12-27T15:08:25.064Z,102134.63
2022-12-27T15:14:26.485Z,102124.75
2022-12-27T15:20:02.382Z,102133.03
2022-12-27T15:25:15.278Z,102120.00
2022-12-27T15:30:20.480Z,102116.41
2022-12-27T15:35:44.762Z,102110.13
2022-12-27T15:41:09.142Z,102102.50
2022-12-27T15:46:36.450Z,102099.88
2022-12-27T15:51:50.252Z,102097.13
2022-12-27T15:57:02.096Z,102087.16
2022-12-27T16:02:22.787Z,102077.81
2022-12-27T16:07:53.664Z,102070.22
2022-12-27T16:13:09.905Z,102066.59
2022-12-27T16:18:22.784Z,102069.03
2022-12-27T16:23:30.056Z,102073.75
2022-12-27T16:28:34.438Z,102063.59
2022-12-27T16:33:38.023Z,102058.63
2022-12-27T16:38:52.866Z,102067.84
2022-12-27T16:44:02.360Z,102067.94
2022-12-27T16:49:23.799Z,102068.50
2022-12-27T16:54:36.339Z,102075.50
2022-12-27T17:00:04.409Z,102065.31
2022-12-27T17:05:15.502Z,102070.69
2022-12-27T17:10:37.948Z,102063.44
2022-12-27T17:15:54.711Z,102059.56
2022-12-27T17:21:03.859Z,102055.03
2022-12-27T17:26:19.903Z,102049.84
2022-12-27T17:31:50.566Z,102044.84
2022-12-27T17:37:12.546Z,102034.25
2022-12-27T17:42:42.777Z,102015.81
2022-12-27T17:48:25.546Z,101996.41
2022-12-27T17:53:46.039Z,101994.06
2022-12-27T17:58:58.101Z,101985.03
2022-12-27T18:04:05.400Z,101986.38
2022-12-27T18:09:07.451Z,101980.63
2022-12-27T18:14:14.128Z,101986.44
2022-12-27T18:19:19.778Z,101971.19
2022-12-27T18:24:32.333Z,101971.00
2022-12-27T18:29:36.632Z,101967.63
2022-12-27T18:34:46.037Z,101946.19
2022-12-27T18:40:04.559Z,101944.56
2022-12-27T18:45:20.683Z,101939.81
2022-12-27T18:50:27.122Z,101926.19
2022-12-27T18:55:29.435Z,101933.50
2022-12-27T19:00:34.356Z,101931.22
2022-12-27T19:05:37.539Z,101937.34
2022-12-27T19:10:49.807Z,101935.28
2022-12-27T19:15:52.184Z,101931.06
2022-12-27T19:21:02.843Z,101924.09
2022-12-27T19:26:15.643Z,101923.88
2022-12-27T19:31:23.643Z,101914.59
2022-12-27T19:36:29.375Z,101897.22
2022-12-27T19:41:32.292Z,101894.63
2022-12-27T19:46:34.074Z,101869.00
2022-12-27T19:51:40.852Z,101858.03
2022-12-27T19:56:51.813Z,101868.91
2022-12-27T20:01:58.041Z,101873.63
2022-12-27T20:07:00.232Z,101860.13
2022-12-27T20:12:04.336Z,101854.59
2022-12-27T20:17:06.099Z,101854.38
2022-12-27T20:22:10.021Z,101843.75
2022-12-27T20:27:12.917Z,101849.69
2022-12-27T20:32:17.606Z,101829.88
2022-12-27T20:37:24.331Z,101824.94
2022-12-27T20:42:28.758Z,101813.88
2022-12-27T20:47:32.720Z,101808.19
2022-12-27T20:52:38.514Z,101786.75
2022-12-27T20:57:46.106Z,101772.66
2022-12-27T21:02:52.662Z,101774.94
2022-12-27T21:07:54.573Z,101770.25
2022-12-27T21:12:58.319Z,101747.00
2022-12-27T21:18:02.297Z,101738.19
2022-12-27T21:23:09.198Z,101733.09
2022-12-27T21:28:10.879Z,101728.28
2022-12-27T21:33:14.830Z,101719.63
2022-12-27T21:38:16.637Z,101706.47
2022-12-27T21:43:18.328Z,101695.03
2022-12-27T21:48:22.783Z,101705.13
2022-12-27T21:53:27.571Z,101699.81
2022-12-27T21:58:35.596Z,101693.16
2022-12-27T22:03:41.510Z,101675.75
2022-12-27T22:08:47.690Z,101670.78
2022-12-27T22:13:55.642Z,101670.16
2022-12-27T22:18:57.479Z,101660.56
2022-12-27T22:24:01.210Z,101660.91
2022-12-27T22:29:06.453Z,101642.75
2022-12-27T22:34:08.324Z,101624.91
2022-12-27T22:39:10.015Z,101622.13
2022-12-27T22:44:15.062Z,101615.47
2022-12-27T22:49:18.987Z,101608.19
2022-12-27T22:55:03.123Z,101598.81
2022-12-27T22:59:48.396Z,101586.06
2022-12-27T23:04:54.692Z,101579.34
2022-12-27T23:09:59.410Z,101577.66
2022-12-27T23:15:07.430Z,101563.81
2022-12-27T23:20:10.030Z,101556.94
2022-12-27T23:25:13.945Z,101559.72
2022-12-27T23:30:18.035Z,101544.50
2022-12-27T23:35:19.696Z,101525.22
2022-12-27T23:40:24.145Z,101519.91
2022-12-27T23:45:26.216Z,101514.34
2022-12-27T23:50:30.688Z,101490.59
2022-12-27T23:55:32.815Z,101493.09
